Back to Top
Banner_Quays_at_Mast_2020.jpeg
previous arrow
next arrow

Port Departures Report (AIS)

This report is generated from collected AIS (Automated Identification System) signals from vessels leaving port.

IMO MMSI Class Flag Vessel Name Vessel Type Nav Status Destination Call Sign Latitude Longitude Speed (kts) Course (T) Draught (m) LOA (m) Beam (m) Timestamp
0 250000954 A IE JENNY M FISHING. Power Driven vessel pushing ahead or alongside EIBN6 51.6864 -8.49928 8.4 164 0 19 5 2026-04-08 13:07:25
0 250004156 A IE F/V BREIZH ARVOR II FISHING. - FISHING EIRX3 51.6864 -8.498 7.2 176.1 3.2 23 6 2026-04-07 19:54:14
0 232016609 B GB RNLI LIFEBOAT B-909 SAR. - 51.6867 -8.50022 6 163.1 0 8 2 2026-04-07 19:09:30
0 250001825 B IE OCEAN RANGER Pleasure craft - EIHP5 51.687 -8.49994 4.9 178.8 0 12 5 2026-04-07 18:44:59
9068598 250000608 A IE HANNAHJ FISHING. Undefined E8715 51.687 -8.49991 6 182 0 20 6 2026-04-07 16:21:30
0 250005343 B IE ILEN PASSENGER. - EIUO2 51.6866 -8.49981 3.8 174.9 0 15 3 2026-04-07 12:55:28
0 250001413 B IE FORGONE CONCLUSION SAILING. - EIFA7 51.6857 -8.49971 8.6 175 0 12 3 2026-04-07 12:38:23
0 250000954 A IE JENNY M FISHING. Power Driven vessel pushing ahead or alongside EIBN6 51.6871 -8.49854 8.1 169.4 0 19 5 2026-04-07 01:06:14
0 232016609 B GB RNLI LIFEBOAT B-909 SAR. - 51.6951 -8.53887 32.2 309.3 0 8 2 2026-04-06 19:47:30
0 250005343 B IE ILEN PASSENGER. - EIUO2 51.686 -8.49956 4.4 163.7 0 15 3 2026-04-06 19:00:41
0 232016609 B GB RNLI LIFEBOAT B-909 SAR. - 51.683 -8.49927 15.9 188.4 0 8 2 2026-04-06 18:42:33
0 250004156 A IE F/V BREIZH ARVOR II FISHING. - FISHING EIRX3 51.7017 -8.33402 0 202.3 3.2 23 6 2026-04-05 03:53:08
0 250014182 A IE LADY CATHERINE PASSENGER. - EIA2647 51.6868 -8.49787 6.5 167.1 0 0 0 2026-04-01 16:24:19
0 232032968 B GB SAORSA SAILING. - MIPN5 51.6862 -8.49984 6.1 175.2 0 13 4 2026-04-01 00:46:28
0 232016609 B GB RNLI LIFEBOAT B-909 SAR. - 51.6801 -8.50113 28.3 189.7 0 8 2 2026-03-31 18:58:05
0 250000954 A IE JENNY M FISHING. Power Driven vessel pushing ahead or alongside EIBN6 51.6862 -8.49792 7.4 163.7 0 19 5 2026-03-30 18:20:48
0 250013855 B IE FISCALA SAILING. - EIA2322 51.6856 -8.5015 6.6 192.8 0 15 4 2026-03-30 15:24:54
0 235102054 B GB ROSIE SAILING. - 2HAO5 51.7361 -8.56174 1 220.3 0 12 4 2026-03-27 21:27:42
0 235102054 B GB ROSIE SAILING. - 2HAO5 51.2269 -7.5265 35 156.3 0 12 4 2026-03-27 21:03:36
9068598 250000608 A IE HANNAH J FISHING. Undefined EI8715 51.6867 -8.49854 7.5 178 0 20 7 2026-03-27 19:48:32